Kullen, Sweden

1:03 PM CEST on August 30, 2015 (GMT +0200)
THE SUMMIT MTB | | Change Station
CLOSE
Current Station
Personal Weather Station
Location: Strandbaden, Skåne län
Elevation: 33 ft
Nearby Weather Stations

Elev 33 ft 56.22 °N, 12.54 °E | Updated 8 seconds ago

Scattered Clouds
Scattered Clouds
72.0 °F
Feels Like 71 °F
N
0.0
Wind Variable Wind from West
Gusts 1.0 mph

Today
High -- | Low -- °F
--% Chance of Precip.
Yesterday
High -- | Low -- °F
Precip. -- in
6:08 AM 8:11 PM
Full, 99% visible
Pressure 30.12 in
Visibility 6.2 miles
Clouds Few 1900 ft
Scattered Clouds 18000 ft
Heat Index 71 °F
Dew Point 66 °F
Humidity 83%
Rainfall 0.00 in
Snow Depth Not available.
UV 5 out of 12
Pollen Not available.
Air Quality Not available.
Flu Activity Not available.
METAR ESTA 301050Z 27004KT 230V330 9999 FEW019 SCT180 19/13 Q1020
Pressure 30.12 in
Visibility 6.2 miles
Clouds Few 1900 ft
Scattered Clouds 18000 ft
Heat Index 71 °F
Dew Point 66 °F
Humidity 83%
Rainfall 0.00 in
Snow Depth Not available.
UV 5 out of 12
Pollen Not available.
Air Quality Not available.
Flu Activity Not available.
METAR ESTA 301050Z 27004KT 230V330 9999 FEW019 SCT180 19/13 Q1020

10-Day Weather Forecast

×

Almanac

Astronomy

Aug. 30, 2015 Rise Set
Actual Time
Civil Twilight
Nautical Twilight
Astronomical Twilight
Moon
Length of Visible Light
Length of Day
Tomorrow will be .
, % of the Moon is Illuminated

Today's Extremes

Country Highs Country Lows

Community

WunderPhotos

Upload Photos

1,850,925 photos uploaded!

WunderBlogs® & News

Nearby

Air Quality

  Air Quality AQ Index Pollutant
Not available.

Snow Depth

Station Depth Elevation

Earthquake Activity

City Distance Mag. Time & Date
Minimum magnitude displayed is 2.5.

Coastal Water Temperatures

Place Temperature

Stations

Nearby Weather Stations

Station Location Temp. Windchill Dew Point Humidity Wind Precip. Elev Updated Type